createdAt,value
2023-05-01T00:01:08.246Z,99623.34
2023-05-01T00:03:35.133Z,99629.97
2023-05-01T00:06:05.655Z,99623.91
2023-05-01T00:08:32.423Z,99621.53
2023-05-01T00:11:02.576Z,99618.66
2023-05-01T00:13:29.522Z,99613.41
2023-05-01T00:15:56.149Z,99618.31
2023-05-01T00:18:22.667Z,99618.19
2023-05-01T00:20:49.216Z,99620.25
2023-05-01T00:23:15.654Z,99618.97
2023-05-01T00:25:42.561Z,99615.84
2023-05-01T00:28:09.151Z,99606.31
2023-05-01T00:30:35.673Z,99609.75
2023-05-01T00:33:02.179Z,99599.56
2023-05-01T00:35:29.715Z,99604.16
2023-05-01T00:37:56.218Z,99602.06
2023-05-01T00:40:22.904Z,99603.69
2023-05-01T00:42:49.498Z,99603.06
2023-05-01T00:45:16.099Z,99601.41
2023-05-01T00:47:42.748Z,99596.47
2023-05-01T00:50:09.644Z,99603.03
2023-05-01T00:52:36.157Z,99597.63
2023-05-01T00:55:02.793Z,99601.75
2023-05-01T00:57:29.301Z,99601.63
2023-05-01T00:59:55.957Z,99600.91
2023-05-01T01:02:23.201Z,99611.25
2023-05-01T01:04:50.195Z,99611.66
2023-05-01T01:07:25.216Z,99614.13
2023-05-01T01:10:18.432Z,99607.91
2023-05-01T01:12:54.916Z,99615.22
2023-05-01T01:15:29.073Z,99617.59
2023-05-01T01:18:01.617Z,99610.78
2023-05-01T01:20:28.016Z,99610.63
2023-05-01T01:23:01.525Z,99611.09
2023-05-01T01:25:46.711Z,99607.16
2023-05-01T01:28:28.295Z,99611.34
2023-05-01T01:31:01.651Z,99610.69
2023-05-01T01:33:40.584Z,99610.25
2023-05-01T01:36:08.383Z,99620.13
2023-05-01T01:38:42.509Z,99617.56
2023-05-01T01:41:12.079Z,99617.53
2023-05-01T01:43:40.684Z,99613.53
2023-05-01T01:46:08.589Z,99610.13
2023-05-01T01:48:37.194Z,99611.50
2023-05-01T01:51:09.114Z,99607.50
2023-05-01T01:53:37.625Z,99608.19
2023-05-01T01:56:06.214Z,99597.84
2023-05-01T01:58:35.079Z,99597.19
2023-05-01T02:01:01.866Z,99592.94
2023-05-01T02:03:29.412Z,99597.06
2023-05-01T02:05:56.675Z,99593.22
2023-05-01T02:08:24.653Z,99586.13
2023-05-01T02:10:51.156Z,99588.94
2023-05-01T02:13:18.373Z,99592.03
2023-05-01T02:15:45.771Z,99587.09
2023-05-01T02:18:13.110Z,99585.88
2023-05-01T02:20:41.233Z,99586.81
2023-05-01T02:23:08.201Z,99585.84
2023-05-01T02:25:36.412Z,99582.66
2023-05-01T02:28:06.942Z,99570.50
2023-05-01T02:30:33.483Z,99569.16
2023-05-01T02:32:59.968Z,99568.56
2023-05-01T02:35:26.435Z,99574.78
2023-05-01T02:37:52.916Z,99570.75
2023-05-01T02:40:19.477Z,99572.94
2023-05-01T02:42:48.072Z,99571.94
2023-05-01T02:45:22.569Z,99570.22
2023-05-01T02:47:51.630Z,99580.63
2023-05-01T02:50:19.301Z,99581.00
2023-05-01T02:52:47.060Z,99582.56
2023-05-01T02:55:13.653Z,99581.44
2023-05-01T02:57:40.071Z,99582.09
2023-05-01T03:00:09.393Z,99578.94
2023-05-01T03:02:35.935Z,99582.84
2023-05-01T03:05:02.335Z,99578.03
2023-05-01T03:07:35.206Z,99576.38
2023-05-01T03:10:04.013Z,99577.16
2023-05-01T03:12:30.834Z,99580.72
2023-05-01T03:14:57.314Z,99575.50
2023-05-01T03:17:23.777Z,99570.50
2023-05-01T03:19:50.303Z,99575.78
2023-05-01T03:22:16.741Z,99565.78
2023-05-01T03:24:43.571Z,99562.94
2023-05-01T03:27:09.965Z,99570.59
2023-05-01T03:29:38.110Z,99568.47
2023-05-01T03:32:05.126Z,99565.88
2023-05-01T03:34:31.535Z,99564.09
2023-05-01T03:36:58.266Z,99567.94
2023-05-01T03:39:24.713Z,99563.94
2023-05-01T03:41:51.111Z,99566.09
2023-05-01T03:44:17.546Z,99560.75
2023-05-01T03:46:44.525Z,99564.91
2023-05-01T03:49:11.120Z,99570.94
2023-05-01T03:51:37.696Z,99567.34
2023-05-01T03:54:04.125Z,99567.63
2023-05-01T03:56:35.542Z,99569.97
2023-05-01T03:59:02.137Z,99553.69
2023-05-01T04:01:28.562Z,99559.16
2023-05-01T04:03:55.361Z,99557.81
2023-05-01T04:06:22.854Z,99555.47
2023-05-01T04:08:49.377Z,99548.50
2023-05-01T04:11:15.989Z,99552.97
2023-05-01T04:13:42.485Z,99553.94
2023-05-01T04:16:09.041Z,99553.94
2023-05-01T04:18:35.553Z,99553.25
2023-05-01T04:21:01.979Z,99553.06
2023-05-01T04:23:30.296Z,99557.53
2023-05-01T04:25:57.135Z,99560.16
2023-05-01T04:28:23.554Z,99555.63
2023-05-01T04:30:50.262Z,99561.34
2023-05-01T04:33:16.731Z,99558.03
2023-05-01T04:35:43.761Z,99554.53
2023-05-01T04:38:10.670Z,99556.97
2023-05-01T04:40:37.267Z,99558.81
2023-05-01T04:43:03.753Z,99560.66
2023-05-01T04:45:30.214Z,99571.03
2023-05-01T04:47:56.760Z,99572.47
2023-05-01T04:50:23.271Z,99575.41
2023-05-01T04:52:49.717Z,99576.63
2023-05-01T04:55:16.642Z,99572.66
2023-05-01T04:57:43.074Z,99568.84
2023-05-01T05:00:09.785Z,99573.06
2023-05-01T05:02:36.357Z,99570.28
2023-05-01T05:05:03.045Z,99568.28
2023-05-01T05:07:29.507Z,99571.44
2023-05-01T05:09:56.283Z,99577.66
2023-05-01T05:12:22.853Z,99580.34
2023-05-01T05:14:49.379Z,99586.16
2023-05-01T05:17:15.824Z,99577.66
2023-05-01T05:19:42.261Z,99576.41
2023-05-01T05:22:08.760Z,99584.69
2023-05-01T05:24:35.187Z,99582.88
2023-05-01T05:27:01.696Z,99579.59
2023-05-01T05:29:28.161Z,99586.06
2023-05-01T05:31:54.636Z,99583.03
2023-05-01T05:34:21.195Z,99578.50
2023-05-01T05:36:47.741Z,99582.56
2023-05-01T05:39:14.403Z,99595.13
2023-05-01T05:41:40.969Z,99587.72
2023-05-01T05:44:07.526Z,99587.03
2023-05-01T05:46:34.046Z,99585.78
2023-05-01T05:49:00.744Z,99589.72
2023-05-01T05:51:28.091Z,99590.66
2023-05-01T05:53:54.688Z,99590.72
2023-05-01T05:56:21.258Z,99594.94
2023-05-01T05:58:47.741Z,99584.91
2023-05-01T06:01:15.047Z,99590.41
2023-05-01T06:03:41.959Z,99594.03
2023-05-01T06:06:08.654Z,99596.53
2023-05-01T06:08:36.468Z,99597.22
2023-05-01T06:11:02.918Z,99598.25
2023-05-01T06:13:29.640Z,99600.88
2023-05-01T06:15:56.121Z,99601.13
2023-05-01T06:18:22.834Z,99598.78
2023-05-01T06:20:49.350Z,99598.94
2023-05-01T06:23:16.337Z,99605.53
2023-05-01T06:25:42.847Z,99605.94
2023-05-01T06:28:09.293Z,99605.44
2023-05-01T06:30:35.717Z,99611.91
2023-05-01T06:33:02.484Z,99608.41
2023-05-01T06:35:28.946Z,99606.81
2023-05-01T06:37:56.082Z,99604.13
2023-05-01T06:40:22.541Z,99605.31
2023-05-01T06:42:49.104Z,99612.16
2023-05-01T06:45:15.737Z,99614.63
2023-05-01T06:47:42.260Z,99612.06
2023-05-01T06:50:09.137Z,99611.94
2023-05-01T06:52:35.705Z,99606.16
2023-05-01T06:55:02.261Z,99602.59
2023-05-01T06:57:28.728Z,99602.47
2023-05-01T06:59:55.372Z,99608.19
2023-05-01T07:02:22.186Z,99597.38
2023-05-01T07:04:48.685Z,99599.78
2023-05-01T07:07:15.151Z,99602.66
2023-05-01T07:09:41.637Z,99602.94
2023-05-01T07:12:08.170Z,99602.31
2023-05-01T07:14:35.674Z,99603.94
2023-05-01T07:17:02.563Z,99599.34
2023-05-01T07:19:29.270Z,99598.22
2023-05-01T07:21:55.848Z,99593.56
2023-05-01T07:24:22.689Z,99599.59
2023-05-01T07:26:49.159Z,99595.44
2023-05-01T07:29:16.510Z,99594.03
2023-05-01T07:31:43.634Z,99597.75
2023-05-01T07:34:10.247Z,99595.97
2023-05-01T07:36:36.770Z,99592.53
2023-05-01T07:39:04.031Z,99602.22
2023-05-01T07:41:31.487Z,99601.81
2023-05-01T07:44:01.203Z,99593.19
2023-05-01T07:46:27.783Z,99600.41
2023-05-01T07:48:54.567Z,99596.47
2023-05-01T07:51:21.119Z,99593.09
2023-05-01T07:53:48.727Z,99589.31
2023-05-01T07:56:15.272Z,99587.34
2023-05-01T07:58:42.701Z,99586.25
2023-05-01T08:01:09.297Z,99588.34
2023-05-01T08:03:36.031Z,99586.63
2023-05-01T08:06:02.570Z,99582.78
2023-05-01T08:08:29.033Z,99580.06
2023-05-01T08:10:56.259Z,99584.81
2023-05-01T08:13:22.808Z,99580.44
2023-05-01T08:15:49.442Z,99572.44
2023-05-01T08:18:20.501Z,99566.84
2023-05-01T08:20:50.790Z,99574.00
2023-05-01T08:23:17.520Z,99579.66
2023-05-01T08:25:46.899Z,99574.94
2023-05-01T08:28:16.710Z,99580.53
2023-05-01T08:30:44.445Z,99583.28
2023-05-01T08:33:10.901Z,99586.84
2023-05-01T08:35:37.421Z,99575.72
2023-05-01T08:38:03.864Z,99580.09
2023-05-01T08:40:31.872Z,99583.63
2023-05-01T08:43:00.564Z,99572.50
2023-05-01T08:45:27.786Z,99572.41
2023-05-01T08:47:55.350Z,99569.56
2023-05-01T08:50:22.829Z,99565.84
2023-05-01T08:52:51.376Z,99564.88
2023-05-01T08:55:19.485Z,99567.13
2023-05-01T08:57:49.368Z,99562.25
2023-05-01T09:00:20.168Z,99562.88
2023-05-01T09:02:48.378Z,99562.09
2023-05-01T09:05:18.946Z,99566.09
2023-05-01T09:07:46.578Z,99559.56
2023-05-01T09:10:14.093Z,99566.00
2023-05-01T09:12:41.635Z,99562.63
2023-05-01T09:15:08.499Z,99560.19
2023-05-01T09:17:35.531Z,99560.31
2023-05-01T09:20:02.474Z,99558.34
2023-05-01T09:22:30.443Z,99550.69
2023-05-01T09:24:56.880Z,99548.41
2023-05-01T09:27:23.395Z,99544.63
2023-05-01T09:29:49.834Z,99552.97
2023-05-01T09:32:21.186Z,99540.97
2023-05-01T09:34:49.272Z,99544.19
2023-05-01T09:37:34.276Z,99540.56
2023-05-01T09:40:08.532Z,99535.66
2023-05-01T09:42:58.076Z,99536.53
2023-05-01T09:45:26.570Z,99531.97
2023-05-01T09:48:09.512Z,99529.84
2023-05-01T09:50:35.981Z,99532.94
2023-05-01T09:53:04.683Z,99529.16
2023-05-01T09:55:31.617Z,99517.97
2023-05-01T09:57:58.942Z,99532.59
2023-05-01T10:00:25.534Z,99522.16
2023-05-01T10:02:52.243Z,99520.00
2023-05-01T10:05:19.011Z,99520.19
2023-05-01T10:08:02.225Z,99515.59
2023-05-01T10:10:28.966Z,99514.72
2023-05-01T10:12:55.669Z,99512.72
2023-05-01T10:15:25.624Z,99514.41
2023-05-01T10:17:53.656Z,99506.72
2023-05-01T10:20:20.308Z,99509.19
2023-05-01T10:22:47.230Z,99505.41
2023-05-01T10:25:14.246Z,99505.72
2023-05-01T10:27:41.407Z,99505.78
2023-05-01T10:30:08.680Z,99504.59
2023-05-01T10:32:36.480Z,99500.13
2023-05-01T10:35:05.569Z,99505.13
2023-05-01T10:37:35.702Z,99500.69
2023-05-01T10:40:22.022Z,99493.50
2023-05-01T10:43:06.976Z,99491.75
2023-05-01T10:45:35.278Z,99490.75
2023-05-01T10:48:02.451Z,99501.03
2023-05-01T10:50:29.046Z,99485.94
2023-05-01T10:53:14.412Z,99487.19
2023-05-01T10:55:45.203Z,99488.00
2023-05-01T10:58:12.408Z,99481.22
2023-05-01T11:00:38.909Z,99482.50
2023-05-01T11:03:23.567Z,99473.97
2023-05-01T11:06:04.699Z,99480.03
2023-05-01T11:08:38.668Z,99477.31
2023-05-01T11:11:20.189Z,99475.28
2023-05-01T11:13:59.365Z,99470.63
2023-05-01T11:16:38.422Z,99478.28
2023-05-01T11:19:05.660Z,99479.19
2023-05-01T11:21:34.184Z,99467.69
2023-05-01T11:24:01.577Z,99466.00
2023-05-01T11:26:30.155Z,99462.59
2023-05-01T11:28:59.199Z,99464.59
2023-05-01T11:31:26.614Z,99457.97
2023-05-01T11:33:55.934Z,99451.94
2023-05-01T11:36:22.356Z,99451.69
2023-05-01T11:38:52.625Z,99456.88
2023-05-01T11:41:22.727Z,99446.44
2023-05-01T11:43:53.316Z,99452.22
2023-05-01T11:46:32.777Z,99450.56
2023-05-01T11:49:01.105Z,99435.88
2023-05-01T11:51:28.274Z,99443.34
2023-05-01T11:54:01.595Z,99439.16
2023-05-01T11:56:28.198Z,99439.75
2023-05-01T11:58:58.571Z,99430.84
2023-05-01T12:01:35.217Z,99431.66
2023-05-01T12:04:02.161Z,99437.88
2023-05-01T12:06:43.932Z,99433.19
2023-05-01T12:09:20.452Z,99428.13
2023-05-01T12:11:47.816Z,99426.63
2023-05-01T12:14:15.288Z,99423.88
2023-05-01T12:16:42.413Z,99413.69
2023-05-01T12:19:09.217Z,99411.41
2023-05-01T12:21:36.692Z,99406.38
2023-05-01T12:24:16.139Z,99407.78
2023-05-01T12:26:43.174Z,99402.00
2023-05-01T12:29:09.944Z,99399.69
2023-05-01T12:31:37.290Z,99393.81
2023-05-01T12:34:04.906Z,99398.47
2023-05-01T12:36:32.465Z,99389.06
2023-05-01T12:39:00.758Z,99385.16
2023-05-01T12:41:42.150Z,99395.31
2023-05-01T12:44:20.725Z,99383.75
2023-05-01T12:46:53.592Z,99381.91
2023-05-01T12:49:20.788Z,99379.19
2023-05-01T12:51:51.015Z,99379.63
2023-05-01T12:54:20.530Z,99379.78
2023-05-01T12:56:47.132Z,99370.00
2023-05-01T12:59:20.490Z,99368.66
2023-05-01T13:01:47.095Z,99369.28
2023-05-01T13:04:20.202Z,99365.78
2023-05-01T13:06:46.994Z,99357.09
2023-05-01T13:09:15.356Z,99353.97
2023-05-01T13:11:41.824Z,99357.03
2023-05-01T13:14:09.028Z,99354.31
2023-05-01T13:16:44.874Z,99349.22
2023-05-01T13:19:12.129Z,99344.59
2023-05-01T13:21:46.091Z,99340.03
2023-05-01T13:24:13.601Z,99341.34
2023-05-01T13:26:40.315Z,99342.59
2023-05-01T13:29:07.272Z,99335.56
2023-05-01T13:31:33.736Z,99329.63
2023-05-01T13:34:00.295Z,99324.38
2023-05-01T13:36:32.283Z,99327.69
2023-05-01T13:38:59.482Z,99312.88
2023-05-01T13:41:26.493Z,99314.03
2023-05-01T13:43:53.572Z,99310.16
2023-05-01T13:46:21.574Z,99303.88
2023-05-01T13:48:48.913Z,99305.78
2023-05-01T13:51:26.661Z,99288.69
2023-05-01T13:53:56.585Z,99290.03
2023-05-01T13:56:23.198Z,99291.72
2023-05-01T13:58:50.457Z,99288.63
2023-05-01T14:01:18.959Z,99287.75
2023-05-01T14:03:45.989Z,99286.44
2023-05-01T14:06:13.919Z,99278.09
2023-05-01T14:08:40.667Z,99280.88
2023-05-01T14:11:07.858Z,99276.88
2023-05-01T14:13:35.802Z,99278.28
2023-05-01T14:16:07.313Z,99270.91
2023-05-01T14:18:35.325Z,99276.88
2023-05-01T14:21:02.155Z,99269.38
2023-05-01T14:23:29.136Z,99272.88
2023-05-01T14:25:55.601Z,99263.22
2023-05-01T14:28:23.753Z,99267.28
2023-05-01T14:30:51.402Z,99258.88
2023-05-01T14:33:17.990Z,99255.28
2023-05-01T14:35:49.739Z,99257.97
2023-05-01T14:38:17.372Z,99252.91
2023-05-01T14:40:44.615Z,99250.63
2023-05-01T14:43:13.207Z,99251.00
2023-05-01T14:45:43.498Z,99245.84
2023-05-01T14:48:30.150Z,99241.69
2023-05-01T14:50:58.094Z,99247.16
2023-05-01T14:53:24.507Z,99241.47
2023-05-01T14:55:51.592Z,99240.09
2023-05-01T14:58:18.057Z,99246.50
2023-05-01T15:00:44.462Z,99243.94
2023-05-01T15:03:10.974Z,99248.41
2023-05-01T15:05:38.452Z,99244.72
2023-05-01T15:08:05.670Z,99246.66
2023-05-01T15:10:32.414Z,99244.00
2023-05-01T15:12:58.911Z,99245.81
2023-05-01T15:15:26.811Z,99249.25
2023-05-01T15:17:53.312Z,99241.22
2023-05-01T15:20:19.834Z,99234.53
2023-05-01T15:22:46.232Z,99245.59
2023-05-01T15:25:17.818Z,99238.09
2023-05-01T15:27:45.973Z,99227.84
2023-05-01T15:30:12.685Z,99234.25
2023-05-01T15:32:39.234Z,99236.53
2023-05-01T15:35:05.897Z,99234.59
2023-05-01T15:37:33.111Z,99233.28
2023-05-01T15:39:59.715Z,99230.50
2023-05-01T15:42:26.334Z,99231.13
2023-05-01T15:44:52.976Z,99220.78
2023-05-01T15:47:19.449Z,99228.31
2023-05-01T15:49:45.888Z,99221.84
2023-05-01T15:52:12.518Z,99224.88
2023-05-01T15:54:38.893Z,99214.25
2023-05-01T15:57:07.674Z,99219.41
2023-05-01T15:59:34.110Z,99216.19
2023-05-01T16:02:01.002Z,99210.88
2023-05-01T16:04:27.447Z,99214.31
2023-05-01T16:06:53.938Z,99209.06
2023-05-01T16:09:21.486Z,99212.19
2023-05-01T16:11:47.984Z,99211.69
2023-05-01T16:14:15.681Z,99207.81
2023-05-01T16:16:42.984Z,99208.75
2023-05-01T16:19:11.419Z,99208.44
2023-05-01T16:21:38.198Z,99209.78
2023-05-01T16:24:05.161Z,99207.53
2023-05-01T16:26:32.870Z,99208.38
2023-05-01T16:29:00.473Z,99193.31
2023-05-01T16:31:28.211Z,99200.59
2023-05-01T16:33:54.951Z,99198.78
2023-05-01T16:36:21.498Z,99204.94
2023-05-01T16:38:48.124Z,99200.19
2023-05-01T16:41:17.994Z,99205.03
2023-05-01T16:43:46.195Z,99199.53
2023-05-01T16:46:14.692Z,99194.91
2023-05-01T16:48:41.342Z,99202.88
2023-05-01T16:51:08.905Z,99202.19
2023-05-01T16:53:35.456Z,99199.13
2023-05-01T16:56:02.107Z,99201.22
2023-05-01T16:58:28.684Z,99210.88
2023-05-01T17:00:55.772Z,99213.84
2023-05-01T17:03:22.229Z,99206.78
2023-05-01T17:05:48.640Z,99200.53
2023-05-01T17:08:15.037Z,99204.22
2023-05-01T17:10:41.576Z,99206.34
2023-05-01T17:13:08.287Z,99205.25
2023-05-01T17:15:34.699Z,99211.25
2023-05-01T17:18:01.208Z,99210.91
2023-05-01T17:20:28.574Z,99211.34
2023-05-01T17:22:55.211Z,99212.22
2023-05-01T17:25:21.636Z,99214.69
2023-05-01T17:27:48.067Z,99213.97
2023-05-01T17:30:14.584Z,99208.47
2023-05-01T17:32:41.174Z,99210.13
2023-05-01T17:35:07.995Z,99210.19
2023-05-01T17:37:34.453Z,99208.28
2023-05-01T17:40:01.779Z,99205.94
2023-05-01T17:42:28.573Z,99216.69
2023-05-01T17:44:55.115Z,99210.44
2023-05-01T17:47:24.374Z,99209.69
2023-05-01T17:49:52.540Z,99211.31
2023-05-01T17:52:19.018Z,99212.19
2023-05-01T17:54:45.453Z,99214.59
2023-05-01T17:57:11.899Z,99208.25
2023-05-01T17:59:38.308Z,99203.53
2023-05-01T18:02:04.824Z,99207.53
2023-05-01T18:04:31.448Z,99206.75
2023-05-01T18:06:58.211Z,99204.38
2023-05-01T18:09:24.783Z,99211.50
2023-05-01T18:11:51.197Z,99203.59
2023-05-01T18:14:17.757Z,99204.78
2023-05-01T18:16:44.283Z,99209.97
2023-05-01T18:19:10.964Z,99206.41
2023-05-01T18:21:37.477Z,99213.09
2023-05-01T18:24:04.139Z,99208.75
2023-05-01T18:26:30.850Z,99204.41
2023-05-01T18:28:57.409Z,99203.63
2023-05-01T18:31:23.880Z,99206.00
2023-05-01T18:33:50.337Z,99205.22
2023-05-01T18:36:16.729Z,99204.03
2023-05-01T18:38:43.380Z,99213.91
2023-05-01T18:41:09.845Z,99210.72
2023-05-01T18:43:36.556Z,99217.09
2023-05-01T18:46:03.177Z,99218.69
2023-05-01T18:48:29.654Z,99222.63
2023-05-01T18:51:07.858Z,99225.00
2023-05-01T18:53:35.677Z,99229.75
2023-05-01T18:56:02.185Z,99228.97
2023-05-01T18:58:28.634Z,99226.19
2023-05-01T19:00:55.095Z,99242.06
2023-05-01T19:03:21.527Z,99242.03
2023-05-01T19:05:48.146Z,99236.06
2023-05-01T19:08:14.667Z,99229.34
2023-05-01T19:10:42.522Z,99232.13
2023-05-01T19:13:08.912Z,99236.50
2023-05-01T19:15:35.447Z,99235.31
2023-05-01T19:18:02.531Z,99234.91
2023-05-01T19:20:28.958Z,99230.97
2023-05-01T19:22:55.501Z,99236.91
2023-05-01T19:25:21.929Z,99237.69
2023-05-01T19:27:49.031Z,99240.84
2023-05-01T19:30:16.364Z,99237.28
2023-05-01T19:32:42.789Z,99237.22
2023-05-01T19:35:11.562Z,99240.00
2023-05-01T19:37:38.480Z,99241.16
2023-05-01T19:40:05.094Z,99255.78
2023-05-01T19:42:31.539Z,99249.78
2023-05-01T19:44:57.986Z,99248.53
2023-05-01T19:47:24.396Z,99244.56
2023-05-01T19:49:51.267Z,99257.56
2023-05-01T19:52:17.788Z,99249.28
2023-05-01T19:54:44.745Z,99247.31
2023-05-01T19:57:11.565Z,99249.38
2023-05-01T19:59:40.234Z,99247.84
2023-05-01T20:02:07.170Z,99253.75
2023-05-01T20:04:33.649Z,99246.19
2023-05-01T20:07:02.348Z,99239.88
2023-05-01T20:09:28.755Z,99249.34
2023-05-01T20:11:55.158Z,99243.00
2023-05-01T20:14:21.594Z,99239.84
2023-05-01T20:16:50.512Z,99239.06
2023-05-01T20:19:17.817Z,99239.03
2023-05-01T20:21:44.319Z,99242.19
2023-05-01T20:24:11.331Z,99245.66
2023-05-01T20:26:37.835Z,99247.56
2023-05-01T20:29:04.300Z,99251.53
2023-05-01T20:31:30.774Z,99244.44
2023-05-01T20:33:57.234Z,99250.75
2023-05-01T20:36:25.226Z,99253.88
2023-05-01T20:38:53.188Z,99259.25
2023-05-01T20:41:19.712Z,99261.53
2023-05-01T20:43:46.487Z,99255.97
2023-05-01T20:46:12.938Z,99259.13
2023-05-01T20:48:39.370Z,99266.63
2023-05-01T20:51:05.804Z,99264.59
2023-05-01T20:53:32.292Z,99263.03
2023-05-01T20:55:58.725Z,99262.19
2023-05-01T20:58:25.184Z,99270.91
2023-05-01T21:00:53.157Z,99266.78
2023-05-01T21:03:19.830Z,99267.03
2023-05-01T21:05:46.356Z,99274.41
2023-05-01T21:08:12.754Z,99275.88
2023-05-01T21:10:39.379Z,99273.47
2023-05-01T21:13:05.888Z,99273.44
2023-05-01T21:15:33.852Z,99274.66
2023-05-01T21:18:01.047Z,99267.91
2023-05-01T21:20:31.966Z,99270.97
2023-05-01T21:22:59.416Z,99272.72
2023-05-01T21:25:27.388Z,99275.53
2023-05-01T21:27:54.136Z,99281.19
2023-05-01T21:30:31.204Z,99279.09
2023-05-01T21:32:58.446Z,99278.00
2023-05-01T21:35:29.514Z,99282.81
2023-05-01T21:37:56.306Z,99277.53
2023-05-01T21:40:22.785Z,99280.59
2023-05-01T21:42:49.503Z,99278.72
2023-05-01T21:45:17.748Z,99283.38
2023-05-01T21:47:45.511Z,99280.91
2023-05-01T21:50:13.078Z,99287.59
2023-05-01T21:52:39.988Z,99281.66
2023-05-01T21:55:07.363Z,99275.66
2023-05-01T21:57:38.220Z,99283.97
2023-05-01T22:00:05.681Z,99281.53
2023-05-01T22:02:38.456Z,99279.63
2023-05-01T22:05:05.633Z,99278.53
2023-05-01T22:07:32.118Z,99272.16
2023-05-01T22:09:59.497Z,99279.75
2023-05-01T22:12:26.198Z,99279.28
2023-05-01T22:14:52.920Z,99286.25
2023-05-01T22:17:24.185Z,99289.50
2023-05-01T22:19:51.632Z,99287.16
2023-05-01T22:22:18.350Z,99285.09
2023-05-01T22:24:44.902Z,99282.34
2023-05-01T22:27:11.509Z,99289.50
2023-05-01T22:29:37.907Z,99279.97
2023-05-01T22:32:04.908Z,99286.13
2023-05-01T22:34:31.466Z,99292.25
2023-05-01T22:36:57.895Z,99296.16
2023-05-01T22:39:24.351Z,99285.78
2023-05-01T22:41:50.764Z,99297.56
2023-05-01T22:44:17.294Z,99295.88
2023-05-01T22:46:44.523Z,99294.78
2023-05-01T22:49:11.108Z,99293.91
2023-05-01T22:51:37.527Z,99285.09
2023-05-01T22:54:04.018Z,99284.25
2023-05-01T22:56:30.454Z,99288.41
2023-05-01T22:58:56.875Z,99283.06
2023-05-01T23:01:23.443Z,99275.78
2023-05-01T23:03:50.470Z,99284.38
2023-05-01T23:06:18.406Z,99282.34
2023-05-01T23:08:44.939Z,99274.41
2023-05-01T23:11:11.952Z,99280.63
2023-05-01T23:13:41.945Z,99278.56
2023-05-01T23:16:08.570Z,99282.06
2023-05-01T23:18:39.579Z,99285.53
2023-05-01T23:21:06.080Z,99274.03
2023-05-01T23:23:34.977Z,99281.03
2023-05-01T23:26:01.723Z,99277.91
2023-05-01T23:28:28.856Z,99274.81
2023-05-01T23:30:56.668Z,99270.44
2023-05-01T23:33:27.302Z,99279.44
2023-05-01T23:35:53.783Z,99270.66
2023-05-01T23:38:20.281Z,99269.03
2023-05-01T23:40:46.758Z,99271.59
2023-05-01T23:43:13.350Z,99269.31
2023-05-01T23:45:40.221Z,99269.72
2023-05-01T23:48:07.352Z,99270.59
2023-05-01T23:50:33.880Z,99263.50
2023-05-01T23:53:03.720Z,99266.66
2023-05-01T23:55:30.203Z,99269.63
2023-05-01T23:57:58.306Z,99273.50
